ETHA

Altenstadt Army Airfield Airport

Altenstadt, Germany
METAR ETHA 172020Z AUTO 01003KT //// // ////// M02/M03 Q1018 ///
Observed Flight Rules
Feb-17 @ 20:20 UTC (an hour ago)
Wind
10° at 3 knots
Temperatures Readings
Current -2°C / 28°F
Dewpoint -3°C / 27°F
Humidity 93%
Altimeter 30.06" Hg
Pressure 1018 hPa
Elevation 760
METAR ETHA 172020Z AUTO 01003KT //// // ////// M02/M03 Q1018 ///
Observed Flight Rules
Feb-17 @ 20:20 UTC
(an hour ago)
Wind
10° at 3 knots
Temperature Dewpoint
-2°C / 28°F -3°C / 27°F
Humidity Altimeter Pressure
93% 30.06" Hg 1018 hPa